createdAt,value
2018-06-02T00:01:37.491Z,95296.31
2018-06-02T00:04:05.742Z,95297.44
2018-06-02T00:06:34.008Z,95295.29
2018-06-02T00:09:03.023Z,95300.20
2018-06-02T00:11:31.288Z,95301.12
2018-06-02T00:14:00.307Z,95306.58
2018-06-02T00:16:28.564Z,95310.41
2018-06-02T00:18:56.819Z,95307.23
2018-06-02T00:21:25.431Z,95306.36
2018-06-02T00:23:54.455Z,95307.84
2018-06-02T00:26:22.707Z,95307.73
2018-06-02T00:28:51.738Z,95309.84
2018-06-02T00:31:20.092Z,95306.47
2018-06-02T00:33:48.344Z,95305.02
2018-06-02T00:36:16.618Z,95304.49
2018-06-02T00:38:44.872Z,95299.89
2018-06-02T00:41:13.139Z,95295.67
2018-06-02T00:43:41.391Z,95298.70
2018-06-02T00:46:11.675Z,95298.33
2018-06-02T00:48:39.923Z,95291.88
2018-06-02T00:51:08.192Z,95294.19
2018-06-02T00:53:36.447Z,95295.39
2018-06-02T00:56:05.998Z,95298.29
2018-06-02T00:58:34.254Z,95302.84
2018-06-02T01:01:02.527Z,95299.15
2018-06-02T01:03:31.630Z,95296.73
2018-06-02T01:05:59.903Z,95296.61
2018-06-02T01:08:28.919Z,95297.33
2018-06-02T01:10:57.167Z,95295.84
2018-06-02T01:13:25.448Z,95296.89
2018-06-02T01:15:54.467Z,95300.59
2018-06-02T01:18:22.747Z,95301.17
2018-06-02T01:20:51.829Z,95300.32
2018-06-02T01:23:20.051Z,95295.97
2018-06-02T01:25:48.303Z,95300.48
2018-06-02T01:28:17.335Z,95298.50
2018-06-02T01:30:45.599Z,95297.47
2018-06-02T01:33:14.175Z,95302.37
2018-06-02T01:35:42.551Z,95303.41
2018-06-02T01:38:11.575Z,95298.90
2018-06-02T01:40:39.831Z,95297.50
2018-06-02T01:43:08.087Z,95297.06
2018-06-02T01:45:36.359Z,95299.17
2018-06-02T01:48:04.627Z,95298.38
2018-06-02T01:50:32.887Z,95301.47
2018-06-02T01:53:01.155Z,95302.73
2018-06-02T01:55:29.418Z,95294.21
2018-06-02T01:57:58.439Z,95297.54
2018-06-02T02:00:26.705Z,95294.23
2018-06-02T02:02:54.974Z,95301.84
2018-06-02T02:05:23.995Z,95305.98
2018-06-02T02:07:52.264Z,95305.53
2018-06-02T02:10:20.524Z,95298.34
2018-06-02T02:12:49.558Z,95289.23
2018-06-02T02:15:17.814Z,95295.06
2018-06-02T02:17:46.082Z,95293.16
2018-06-02T02:20:15.100Z,95290.84
2018-06-02T02:22:43.367Z,95300.61
2018-06-02T02:25:12.397Z,95298.44
2018-06-02T02:27:40.673Z,95300.65
2018-06-02T02:30:08.928Z,95304.61
2018-06-02T02:32:37.210Z,95304.16
2018-06-02T02:35:05.465Z,95305.54
2018-06-02T02:37:33.731Z,95307.50
2018-06-02T02:40:01.991Z,95306.37
2018-06-02T02:42:30.252Z,95305.17
2018-06-02T02:44:58.528Z,95308.07
2018-06-02T02:47:26.783Z,95306.66
2018-06-02T02:49:55.814Z,95311.21
2018-06-02T02:52:24.087Z,95312.09
2018-06-02T02:54:52.335Z,95315.19
2018-06-02T02:57:21.372Z,95300.95
2018-06-02T02:59:49.627Z,95304.33
2018-06-02T03:02:18.642Z,95303.59
2018-06-02T03:04:46.904Z,95300.59
2018-06-02T03:07:15.159Z,95305.78
2018-06-02T03:09:43.428Z,95316.58
2018-06-02T03:12:11.687Z,95316.66
2018-06-02T03:14:39.944Z,95307.72
2018-06-02T03:17:08.199Z,95310.39
2018-06-02T03:19:37.231Z,95302.56
2018-06-02T03:22:05.487Z,95310.93
2018-06-02T03:24:34.519Z,95312.95
2018-06-02T03:27:02.773Z,95311.80
2018-06-02T03:29:31.043Z,95312.91
2018-06-02T03:31:59.293Z,95312.13
2018-06-02T03:34:27.567Z,95310.77
2018-06-02T03:36:55.826Z,95314.88
2018-06-02T03:39:24.091Z,95320.73
2018-06-02T03:41:52.347Z,95319.43
2018-06-02T03:44:20.611Z,95314.69
2018-06-02T03:46:48.868Z,95310.31
2018-06-02T03:49:17.134Z,95318.36
2018-06-02T03:51:45.391Z,95320.21
2018-06-02T03:54:13.651Z,95324.01
2018-06-02T03:56:41.903Z,95333.98
2018-06-02T03:59:10.211Z,95334.97
2018-06-02T04:01:39.497Z,95332.05
2018-06-02T04:04:08.527Z,95337.77
2018-06-02T04:06:36.776Z,95334.62
2018-06-02T04:09:05.813Z,95336.28
2018-06-02T04:11:34.072Z,95340.44
2018-06-02T04:14:02.348Z,95332.66
2018-06-02T04:16:31.478Z,95339.39
2018-06-02T04:18:59.755Z,95342.36
2018-06-02T04:21:29.056Z,95344.86
2018-06-02T04:23:57.329Z,95347.31
2018-06-02T04:26:25.582Z,95346.32
2018-06-02T04:28:54.590Z,95341.91
2018-06-02T04:31:22.858Z,95346.48
2018-06-02T04:33:51.899Z,95344.68
2018-06-02T04:36:20.156Z,95344.84
2018-06-02T04:38:48.415Z,95345.16
2018-06-02T04:41:17.446Z,95343.13
2018-06-02T04:43:45.695Z,95346.70
2018-06-02T04:46:14.706Z,95343.42
2018-06-02T04:48:42.977Z,95346.70
2018-06-02T04:51:12.016Z,95347.52
2018-06-02T04:53:43.264Z,95352.33
2018-06-02T04:56:11.540Z,95348.61
2018-06-02T04:58:39.792Z,95353.58
2018-06-02T05:01:08.840Z,95353.77
2018-06-02T05:03:37.115Z,95349.38
2018-06-02T05:06:05.379Z,95349.77
2018-06-02T05:08:33.628Z,95346.18
2018-06-02T05:11:02.649Z,95353.94
2018-06-02T05:13:30.904Z,95355.53
2018-06-02T05:16:01.426Z,95357.75
2018-06-02T05:18:29.676Z,95358.44
2018-06-02T05:20:58.010Z,95356.86
2018-06-02T05:23:26.286Z,95357.26
2018-06-02T05:25:55.314Z,95351.73
2018-06-02T05:28:23.562Z,95352.14
2018-06-02T05:30:51.830Z,95355.45
2018-06-02T05:33:20.863Z,95356.86
2018-06-02T05:35:49.231Z,95354.23
2018-06-02T05:38:17.503Z,95351.70
2018-06-02T05:40:46.535Z,95355.77
2018-06-02T05:43:14.784Z,95355.80
2018-06-02T05:45:43.071Z,95351.34
2018-06-02T05:48:11.328Z,95355.00
2018-06-02T05:50:40.365Z,95359.63
2018-06-02T05:53:08.631Z,95357.03
2018-06-02T05:55:36.896Z,95355.14
2018-06-02T05:58:05.920Z,95355.07
2018-06-02T06:00:34.285Z,95348.61
2018-06-02T06:03:03.307Z,95352.42
2018-06-02T06:05:31.574Z,95345.19
2018-06-02T06:07:59.825Z,95346.86
2018-06-02T06:10:28.852Z,95345.67
2018-06-02T06:12:57.118Z,95345.38
2018-06-02T06:15:26.231Z,95341.47
2018-06-02T06:17:54.475Z,95348.36
2018-06-02T06:20:22.756Z,95347.83
2018-06-02T06:22:50.994Z,95344.12
2018-06-02T06:25:19.267Z,95339.03
2018-06-02T06:27:47.523Z,95343.28
2018-06-02T06:30:16.551Z,95343.78
2018-06-02T06:32:44.822Z,95344.56
2018-06-02T06:35:13.071Z,95339.28
2018-06-02T06:37:43.348Z,95336.86
2018-06-02T06:40:12.345Z,95342.66
2018-06-02T06:42:40.604Z,95339.59
2018-06-02T06:45:08.855Z,95329.19
2018-06-02T06:47:37.891Z,95339.38
2018-06-02T06:50:06.139Z,95335.17
2018-06-02T06:52:35.170Z,95335.94
2018-06-02T06:55:03.439Z,95337.65
2018-06-02T06:57:31.687Z,95335.50
2018-06-02T07:00:00.723Z,95332.55
2018-06-02T07:02:28.992Z,95328.41
2018-06-02T07:04:57.243Z,95334.55
2018-06-02T07:07:26.276Z,95326.55
2018-06-02T07:09:54.532Z,95336.08
2018-06-02T07:12:23.564Z,95338.05
2018-06-02T07:14:51.823Z,95332.33
2018-06-02T07:17:20.098Z,95332.41
2018-06-02T07:19:48.355Z,95329.80
2018-06-02T07:22:16.634Z,95327.14
2018-06-02T07:24:44.888Z,95325.52
2018-06-02T07:27:13.151Z,95329.53
2018-06-02T07:29:41.403Z,95326.82
2018-06-02T07:32:09.684Z,95323.60
2018-06-02T07:34:37.979Z,95325.19
2018-06-02T07:37:06.232Z,95320.55
2018-06-02T07:39:35.254Z,95319.42
2018-06-02T07:42:03.514Z,95325.59
2018-06-02T07:44:32.536Z,95321.89
2018-06-02T07:47:00.798Z,95315.89
2018-06-02T07:49:29.050Z,95316.27
2018-06-02T07:51:57.581Z,95322.55
2018-06-02T07:54:25.844Z,95325.62
2018-06-02T07:56:54.864Z,95317.23
2018-06-02T07:59:23.138Z,95321.60
2018-06-02T08:01:51.403Z,95321.16
2018-06-02T08:04:20.422Z,95316.20
2018-06-02T08:06:48.682Z,95314.53
2018-06-02T08:09:16.934Z,95321.37
2018-06-02T08:11:45.204Z,95326.86
2018-06-02T08:14:13.459Z,95324.59
2018-06-02T08:16:41.731Z,95322.80
2018-06-02T08:19:09.983Z,95323.29
2018-06-02T08:21:39.007Z,95332.66
2018-06-02T08:24:07.274Z,95315.28
2018-06-02T08:26:35.551Z,95321.25
2018-06-02T08:29:04.647Z,95321.61
2018-06-02T08:31:32.904Z,95323.93
2018-06-02T08:34:01.927Z,95330.47
2018-06-02T08:36:30.199Z,95325.36
2018-06-02T08:38:59.292Z,95327.41
2018-06-02T08:41:27.490Z,95328.80
2018-06-02T08:43:55.747Z,95327.45
2018-06-02T08:46:24.787Z,95330.98
2018-06-02T08:48:53.046Z,95331.25
2018-06-02T08:51:21.317Z,95328.33
2018-06-02T08:53:50.352Z,95326.89
2018-06-02T08:56:19.415Z,95321.67
2018-06-02T08:58:47.684Z,95319.84
2018-06-02T09:01:17.430Z,95319.38
2018-06-02T09:03:45.695Z,95321.81
2018-06-02T09:06:13.971Z,95317.83
2018-06-02T09:08:43.002Z,95321.32
2018-06-02T09:11:11.257Z,95324.95
2018-06-02T09:13:39.512Z,95323.59
2018-06-02T09:16:08.547Z,95325.26
2018-06-02T09:18:36.806Z,95327.42
2018-06-02T09:21:05.068Z,95324.30
2018-06-02T09:23:34.097Z,95318.70
2018-06-02T09:26:02.364Z,95322.03
2018-06-02T09:28:31.466Z,95316.51
2018-06-02T09:30:59.724Z,95312.16
2018-06-02T09:33:28.754Z,95305.34
2018-06-02T09:35:57.008Z,95311.46
2018-06-02T09:38:26.036Z,95311.06
2018-06-02T09:40:54.301Z,95308.59
2018-06-02T09:43:22.996Z,95309.02
2018-06-02T09:45:51.243Z,95310.55
2018-06-02T09:48:19.515Z,95313.25
2018-06-02T09:50:47.775Z,95311.20
2018-06-02T09:53:16.039Z,95302.35
2018-06-02T09:55:44.291Z,95304.23
2018-06-02T09:58:12.563Z,95304.89
2018-06-02T10:00:41.585Z,95299.25
2018-06-02T10:03:09.858Z,95296.08
2018-06-02T10:05:38.103Z,95297.76
2018-06-02T10:08:06.369Z,95297.71
2018-06-02T10:10:34.658Z,95294.28
2018-06-02T10:13:02.895Z,95291.75
2018-06-02T10:15:31.171Z,95285.25
2018-06-02T10:17:59.440Z,95287.09
2018-06-02T10:20:27.704Z,95281.28
2018-06-02T10:22:56.739Z,95285.97
2018-06-02T10:25:24.996Z,95284.88
2018-06-02T10:27:53.259Z,95276.84
2018-06-02T10:30:22.284Z,95281.48
2018-06-02T10:32:50.548Z,95282.80
2018-06-02T10:35:19.579Z,95284.55
2018-06-02T10:37:47.831Z,95279.64
2018-06-02T10:40:16.099Z,95275.35
2018-06-02T10:42:45.121Z,95272.45
2018-06-02T10:45:13.383Z,95276.31
2018-06-02T10:47:41.646Z,95273.26
2018-06-02T10:50:10.680Z,95269.77
2018-06-02T10:52:38.932Z,95266.58
2018-06-02T10:55:07.368Z,95256.20
2018-06-02T10:57:35.636Z,95251.47
2018-06-02T11:00:03.897Z,95255.43
2018-06-02T11:02:32.145Z,95254.80
2018-06-02T11:05:00.418Z,95247.48
2018-06-02T11:07:28.736Z,95246.55
2018-06-02T11:09:57.003Z,95257.79
2018-06-02T11:12:26.027Z,95256.88
2018-06-02T11:14:54.291Z,95256.19
2018-06-02T11:17:22.547Z,95249.00
2018-06-02T11:19:50.811Z,95249.17
2018-06-02T11:22:19.067Z,95250.49
2018-06-02T11:24:47.335Z,95247.91
2018-06-02T11:27:15.591Z,95243.81
2018-06-02T11:29:44.619Z,95234.14
2018-06-02T11:32:12.888Z,95237.22
2018-06-02T11:34:41.172Z,95235.28
2018-06-02T11:37:09.412Z,95227.25
2018-06-02T11:39:37.666Z,95227.30
2018-06-02T11:42:05.920Z,95227.85
2018-06-02T11:44:34.186Z,95215.80
2018-06-02T11:47:02.444Z,95215.53
2018-06-02T11:49:31.471Z,95209.70
2018-06-02T11:51:59.839Z,95214.81
2018-06-02T11:54:28.104Z,95210.66
2018-06-02T11:56:57.151Z,95207.20
2018-06-02T11:59:25.446Z,95203.94
2018-06-02T12:01:53.679Z,95202.71
2018-06-02T12:04:21.955Z,95200.94
2018-06-02T12:06:50.233Z,95195.25
2018-06-02T12:09:19.259Z,95195.38
2018-06-02T12:11:47.503Z,95195.53
2018-06-02T12:14:16.544Z,95199.45
2018-06-02T12:16:44.791Z,95194.52
2018-06-02T12:19:13.044Z,95190.76
2018-06-02T12:21:41.312Z,95189.25
2018-06-02T12:24:09.573Z,95188.20
2018-06-02T12:26:37.857Z,95179.58
2018-06-02T12:29:06.102Z,95189.06
2018-06-02T12:31:34.366Z,95180.34
2018-06-02T12:34:03.385Z,95179.59
2018-06-02T12:36:31.649Z,95179.32
2018-06-02T12:38:59.912Z,95170.45
2018-06-02T12:41:28.957Z,95175.91
2018-06-02T12:43:57.199Z,95179.24
2018-06-02T12:46:26.231Z,95181.92
2018-06-02T12:48:55.248Z,95183.61
2018-06-02T12:51:23.507Z,95174.30
2018-06-02T12:53:51.762Z,95170.48
2018-06-02T12:56:20.042Z,95171.07
2018-06-02T12:58:49.058Z,95171.20
2018-06-02T13:01:17.323Z,95161.34
2018-06-02T13:03:46.352Z,95164.72
2018-06-02T13:06:14.612Z,95161.79
2018-06-02T13:08:42.883Z,95157.97
2018-06-02T13:11:11.148Z,95145.53
2018-06-02T13:13:40.172Z,95148.43
2018-06-02T13:16:08.445Z,95145.53
2018-06-02T13:18:37.462Z,95147.56
2018-06-02T13:21:05.711Z,95147.22
2018-06-02T13:23:34.722Z,95146.61
2018-06-02T13:26:03.002Z,95141.77
2018-06-02T13:28:32.005Z,95136.31
2018-06-02T13:31:00.270Z,95138.33
2018-06-02T13:33:29.296Z,95133.15
2018-06-02T13:35:57.567Z,95134.59
2018-06-02T13:38:25.815Z,95144.58
2018-06-02T13:40:54.847Z,95141.36
2018-06-02T13:43:23.099Z,95148.20
2018-06-02T13:45:52.130Z,95141.31
2018-06-02T13:48:20.393Z,95133.84
2018-06-02T13:50:49.423Z,95132.68
2018-06-02T13:53:17.679Z,95134.41
2018-06-02T13:55:45.938Z,95135.39
2018-06-02T13:58:15.051Z,95131.72
2018-06-02T14:00:43.298Z,95131.98
2018-06-02T14:03:11.626Z,95136.66
2018-06-02T14:05:39.870Z,95139.78
2018-06-02T14:08:08.910Z,95133.62
2018-06-02T14:10:37.159Z,95131.74
2018-06-02T14:13:06.195Z,95130.29
2018-06-02T14:15:34.448Z,95133.88
2018-06-02T14:18:02.715Z,95136.50
2018-06-02T14:20:31.727Z,95128.67
2018-06-02T14:23:00.746Z,95124.06
2018-06-02T14:25:29.062Z,95120.64
2018-06-02T14:27:58.038Z,95130.17
2018-06-02T14:30:26.387Z,95127.84
2018-06-02T14:32:54.640Z,95126.25
2018-06-02T14:35:23.666Z,95127.41
2018-06-02T14:37:51.938Z,95127.97
2018-06-02T14:40:21.042Z,95122.53
2018-06-02T14:42:49.309Z,95124.20
2018-06-02T14:45:18.319Z,95125.39
2018-06-02T14:47:46.574Z,95118.84
2018-06-02T14:50:14.945Z,95118.53
2018-06-02T14:52:43.195Z,95108.45
2018-06-02T14:55:11.511Z,95111.59
2018-06-02T14:57:39.727Z,95115.13
2018-06-02T15:00:08.742Z,95115.14
2018-06-02T15:02:37.008Z,95112.34
2018-06-02T15:05:05.270Z,95110.32
2018-06-02T15:07:34.298Z,95106.81
2018-06-02T15:10:02.559Z,95106.05
2018-06-02T15:12:31.603Z,95109.55
2018-06-02T15:14:59.860Z,95105.92
2018-06-02T15:17:28.462Z,95101.51
2018-06-02T15:19:57.443Z,95092.63
2018-06-02T15:22:25.699Z,95087.37
2018-06-02T15:24:53.971Z,95084.04
2018-06-02T15:27:23.340Z,95079.70
2018-06-02T15:29:51.596Z,95082.08
2018-06-02T15:32:19.847Z,95088.98
2018-06-02T15:34:48.117Z,95081.38
2018-06-02T15:37:17.154Z,95085.83
2018-06-02T15:39:45.395Z,95071.64
2018-06-02T15:42:14.514Z,95078.41
2018-06-02T15:44:42.714Z,95083.20
2018-06-02T15:47:10.975Z,95079.23
2018-06-02T15:49:39.261Z,95082.66
2018-06-02T15:52:07.499Z,95090.49
2018-06-02T15:54:36.473Z,95085.56
2018-06-02T15:57:04.729Z,95090.36
2018-06-02T15:59:33.042Z,95089.94
2018-06-02T16:02:01.257Z,95090.69
2018-06-02T16:04:30.287Z,95096.31
2018-06-02T16:06:58.547Z,95090.13
2018-06-02T16:09:26.806Z,95090.55
2018-06-02T16:11:55.828Z,95090.14
2018-06-02T16:14:24.096Z,95085.27
2018-06-02T16:16:53.112Z,95086.14
2018-06-02T16:19:21.379Z,95089.38
2018-06-02T16:21:49.633Z,95088.47
2018-06-02T16:24:18.671Z,95087.22
2018-06-02T16:26:46.925Z,95085.93
2018-06-02T16:29:15.989Z,95094.16
2018-06-02T16:31:44.410Z,95081.00
2018-06-02T16:34:13.454Z,95081.23
2018-06-02T16:36:41.714Z,95078.64
2018-06-02T16:39:09.976Z,95079.30
2018-06-02T16:41:38.275Z,95081.94
2018-06-02T16:44:06.530Z,95085.56
2018-06-02T16:46:35.551Z,95086.13
2018-06-02T16:49:03.817Z,95081.64
2018-06-02T16:51:32.867Z,95075.50
2018-06-02T16:54:01.135Z,95080.81
2018-06-02T16:56:29.483Z,95078.25
2018-06-02T16:58:57.751Z,95086.07
2018-06-02T17:01:26.767Z,95086.88
2018-06-02T17:03:55.035Z,95088.20
2018-06-02T17:06:23.598Z,95085.30
2018-06-02T17:08:51.864Z,95085.26
2018-06-02T17:11:20.120Z,95084.61
2018-06-02T17:13:48.387Z,95085.63
2018-06-02T17:16:16.748Z,95088.23
2018-06-02T17:18:45.028Z,95092.00
2018-06-02T17:21:14.036Z,95092.53
2018-06-02T17:23:42.548Z,95092.16
2018-06-02T17:26:10.799Z,95092.73
2018-06-02T17:28:39.065Z,95096.28
2018-06-02T17:31:08.131Z,95095.27
2018-06-02T17:33:36.362Z,95104.21
2018-06-02T17:36:04.622Z,95117.87
2018-06-02T17:38:33.651Z,95119.53
2018-06-02T17:41:01.908Z,95107.80
2018-06-02T17:43:30.936Z,95110.45
2018-06-02T17:45:59.196Z,95108.07
2018-06-02T17:48:27.455Z,95110.99
2018-06-02T17:50:56.488Z,95111.55
2018-06-02T17:53:24.742Z,95116.16
2018-06-02T17:55:53.016Z,95118.92
2018-06-02T17:58:22.033Z,95125.56
2018-06-02T18:00:50.300Z,95130.75
2018-06-02T18:03:19.322Z,95127.02
2018-06-02T18:05:47.590Z,95124.30
2018-06-02T18:08:15.859Z,95134.27
2018-06-02T18:10:44.895Z,95138.52
2018-06-02T18:13:13.156Z,95134.31
2018-06-02T18:15:41.427Z,95143.38
2018-06-02T18:18:09.680Z,95139.41
2018-06-02T18:20:37.946Z,95143.67
2018-06-02T18:23:06.205Z,95137.98
2018-06-02T18:25:34.569Z,95135.65
2018-06-02T18:28:02.828Z,95142.55
2018-06-02T18:30:31.103Z,95154.23
2018-06-02T18:33:00.124Z,95160.16
2018-06-02T18:35:28.387Z,95166.13
2018-06-02T18:37:56.647Z,95164.44
2018-06-02T18:40:25.699Z,95176.23
2018-06-02T18:42:53.966Z,95180.12
2018-06-02T18:45:22.232Z,95185.55
2018-06-02T18:47:50.493Z,95187.27
2018-06-02T18:50:19.546Z,95185.24
2018-06-02T18:52:47.807Z,95187.41
2018-06-02T18:55:16.082Z,95190.73
2018-06-02T18:57:45.276Z,95183.16
2018-06-02T19:00:13.543Z,95183.53
2018-06-02T19:02:41.801Z,95182.03
2018-06-02T19:05:10.065Z,95179.93
2018-06-02T19:07:38.327Z,95179.83
2018-06-02T19:10:06.588Z,95188.04
2018-06-02T19:12:34.846Z,95195.38
2018-06-02T19:15:03.867Z,95196.22
2018-06-02T19:17:32.123Z,95202.59
2018-06-02T19:20:01.678Z,95199.12
2018-06-02T19:22:29.922Z,95201.42
2018-06-02T19:24:58.179Z,95200.42
2018-06-02T19:27:27.207Z,95203.73
2018-06-02T19:29:55.471Z,95200.05
2018-06-02T19:32:23.746Z,95200.27
2018-06-02T19:34:52.857Z,95205.73
2018-06-02T19:37:21.955Z,95205.54
2018-06-02T19:39:50.211Z,95212.64
2018-06-02T19:42:18.468Z,95215.09
2018-06-02T19:44:46.728Z,95217.03
2018-06-02T19:47:14.995Z,95220.62
2018-06-02T19:49:44.508Z,95218.97
2018-06-02T19:52:12.779Z,95217.41
2018-06-02T19:54:41.034Z,95227.00
2018-06-02T19:57:10.068Z,95226.67
2018-06-02T19:59:38.323Z,95223.84
2018-06-02T20:02:07.163Z,95222.63
2018-06-02T20:04:35.423Z,95224.02
2018-06-02T20:07:03.692Z,95231.19
2018-06-02T20:09:31.945Z,95228.63
2018-06-02T20:12:01.688Z,95225.78
2018-06-02T20:14:30.059Z,95226.81
2018-06-02T20:16:58.349Z,95231.06
2018-06-02T20:19:26.611Z,95236.05
2018-06-02T20:21:55.640Z,95242.97
2018-06-02T20:24:23.894Z,95244.22
2018-06-02T20:26:52.158Z,95238.14
2018-06-02T20:29:21.213Z,95241.23
2018-06-02T20:31:49.472Z,95247.67
2018-06-02T20:34:17.741Z,95249.46
2018-06-02T20:36:46.003Z,95241.25
2018-06-02T20:39:15.036Z,95244.33
2018-06-02T20:41:45.312Z,95249.87
2018-06-02T20:44:15.572Z,95254.82
2018-06-02T20:46:43.834Z,95248.12
2018-06-02T20:49:12.867Z,95247.34
2018-06-02T20:51:41.131Z,95250.76
2018-06-02T20:54:09.383Z,95250.30
2018-06-02T20:56:38.525Z,95251.46
2018-06-02T20:59:06.779Z,95249.38
2018-06-02T21:01:35.815Z,95252.08
2018-06-02T21:04:04.075Z,95249.70
2018-06-02T21:06:32.344Z,95256.38
2018-06-02T21:09:00.672Z,95260.42
2018-06-02T21:11:29.634Z,95267.11
2018-06-02T21:13:57.904Z,95266.02
2018-06-02T21:16:26.411Z,95268.77
2018-06-02T21:18:54.665Z,95274.64
2018-06-02T21:21:23.689Z,95272.33
2018-06-02T21:23:51.958Z,95274.64
2018-06-02T21:26:20.208Z,95280.91
2018-06-02T21:28:49.243Z,95282.54
2018-06-02T21:31:17.512Z,95284.59
2018-06-02T21:33:45.801Z,95286.78
2018-06-02T21:36:14.803Z,95289.44
2018-06-02T21:38:43.064Z,95290.52
2018-06-02T21:41:11.314Z,95285.97
2018-06-02T21:43:39.580Z,95288.23
2018-06-02T21:46:07.851Z,95294.14
2018-06-02T21:48:36.103Z,95290.89
2018-06-02T21:51:04.359Z,95292.61
2018-06-02T21:53:32.635Z,95293.08
2018-06-02T21:56:02.475Z,95291.51
2018-06-02T21:58:30.738Z,95288.25
2018-06-02T22:00:59.009Z,95289.53
2018-06-02T22:03:28.038Z,95284.95
2018-06-02T22:05:56.299Z,95286.22
2018-06-02T22:08:24.595Z,95291.58
2018-06-02T22:10:52.862Z,95290.63
2018-06-02T22:13:21.125Z,95286.45
2018-06-02T22:15:50.459Z,95290.27
2018-06-02T22:18:18.724Z,95286.81
2018-06-02T22:20:47.012Z,95287.12
2018-06-02T22:23:15.278Z,95283.17
2018-06-02T22:25:45.541Z,95283.47
2018-06-02T22:28:13.808Z,95284.44
2018-06-02T22:30:42.065Z,95289.05
2018-06-02T22:33:11.096Z,95288.13
2018-06-02T22:35:39.343Z,95285.37
2018-06-02T22:38:09.607Z,95284.84
2018-06-02T22:40:37.872Z,95288.47
2018-06-02T22:43:06.127Z,95284.48
2018-06-02T22:45:35.152Z,95282.92
2018-06-02T22:48:03.423Z,95286.92
2018-06-02T22:50:31.671Z,95280.11
2018-06-02T22:52:59.952Z,95278.29
2018-06-02T22:55:28.970Z,95277.70
2018-06-02T22:57:57.998Z,95276.14
2018-06-02T23:00:26.263Z,95280.06
2018-06-02T23:02:54.523Z,95281.64
2018-06-02T23:05:23.540Z,95280.86
2018-06-02T23:07:51.807Z,95284.05
2018-06-02T23:10:20.836Z,95283.44
2018-06-02T23:12:49.102Z,95288.59
2018-06-02T23:15:17.355Z,95282.37
2018-06-02T23:17:46.403Z,95293.77
2018-06-02T23:20:14.660Z,95291.16
2018-06-02T23:22:42.906Z,95288.80
2018-06-02T23:25:11.419Z,95286.41
2018-06-02T23:27:39.669Z,95284.39
2018-06-02T23:30:07.924Z,95279.69
2018-06-02T23:32:36.198Z,95275.52
2018-06-02T23:35:04.451Z,95277.74
2018-06-02T23:37:32.720Z,95285.51
2018-06-02T23:40:02.772Z,95280.57
2018-06-02T23:42:31.032Z,95274.28
2018-06-02T23:44:59.313Z,95273.98
2018-06-02T23:47:27.550Z,95265.75
2018-06-02T23:49:55.859Z,95274.23
2018-06-02T23:52:24.131Z,95278.66
2018-06-02T23:54:53.158Z,95268.58
2018-06-02T23:57:21.415Z,95273.48
2018-06-02T23:59:50.455Z,95272.77
